AirNav   Bose ProFlight Series 2 Headset
 
 1326 users online  

NH26 Dragonwings Heliport
Bedford, New Hampshire, USA

GOING TO BEDFORD?


FAA INFORMATION EFFECTIVE 30 JANUARY 2020

Location

FAA Identifier: NH26
Lat/Long: 42-58-02.3020N 071-34-22.2510W
42-58.038367N 071-34.370850W
42.9673061,-71.5728475
(estimated)
Elevation: 630 ft. / 192 m (estimated)
Variation: 16W (1985)
From city: 3 miles NW of BEDFORD, NH
Time zone: UTC -5 (UTC -4 during Daylight Saving Time)
Zip code: 03110

Heliport Operations

Heliport use: Private use. Permission required prior to landing
Activation date: 02/1989
Control tower: no
ARTCC: BOSTON CENTER
FSS: BANGOR FLIGHT SERVICE STATION
Attendance: UNATNDD
Segmented circle: no

Heliport Communications

WX ASOS at MHT (6 nm E): 119.55 (603-621-1766)
WX AWOS-3PT at ASH (11 nm S): 125.1 (603-578-0473)
WX ASOS at CON (14 nm N): 132.325 (603-224-6558)

Nearby radio navigation aids

VOR radial/distance  VOR name  Freq  Var
MHTr319/10.7MANCHESTER VOR/DME114.4015W
CONr195/15.1CONCORD VOR/DME112.9015W
LWMr318/25.0LAWRENCE VOR/DME112.5015W
GDMr054/33.1GARDNER VOR/DME110.6014W
PSMr274/33.2PEASE VOR/DME116.5016W
EENr086/33.3KEENE VORTAC109.4014W

 
NDB name  Hdg/Dist  Freq  Var  ID
FITZY358/6.520915WMJ -- .---
EPSOM226/10.521616WCO -.-. ---
ROLLINS261/36.026016WESG . ... --.

Heliport Services

Runway Information

Helipad H1

Dimensions: 60 x 60 ft. / 18 x 18 m
Surface: turf
Traffic pattern: leftleft

Heliport Ownership and Management from official FAA records

Ownership: Privately-owned
Owner: RDF CORPORATION
23 ELM AVE
HUDSON, NH 03051
Phone 800-445-8367
Manager: NARESH PURI
23 ELM AVE
HUDSON, NH 03051
Phone 603-882-5195

Additional Remarks

FOR CD CTC BOSTON APCH AT 603-594-5551.

Instrument Procedures

There are no published instrument procedures at NH26.

Some nearby airports with instrument procedures:

KMHT - Manchester Airport (6 nm E)
KASH - Boire Field Airport (11 nm S)
KCON - Concord Municipal Airport (14 nm N)
KAFN - Jaffrey Airport-Silver Ranch (21 nm SW)
KLWM - Lawrence Municipal Airport (25 nm SE)
 
Loc | Ops | Rwys | IFR | FBO | Links
Com | Nav | Svcs | Stats | Notes
Area around NH26 (Dragonwings Heliport)
 
Road maps at: MapQuest Bing Google
 
Aerial photo
No photo
 
Sectional chart

 
Airport distance calculator
Flying to Dragonwings Heliport? Find the distance to fly.

From to NH26

Sunrise and sunset
Times for 17-Feb-2020
 Local
(UTC-5)
 Zulu
(UTC)
Morning civil twilight06:1311:13
Sunrise06:4211:42
Sunset17:1922:19
Evening civil twilight17:4822:48

Current date and time
Zulu (UTC)  17-Feb-2020 15:51:36
Local (UTC-5)  17-Feb-2020 10:51:36
 
METAR
KMHT 
6nm E 
171453Z 29011G20KT 10SM FEW050 03/M09 A3017 RMK AO2 SLP236 T00331094 51021
KASH 
12nm S 
171456Z 29014G19KT 10SM SCT049 03/M07 A3020 RMK AO2 SLP233 T00331072 51019
KCON 
14nm N 
171451Z AUTO 30009KT 10SM CLR 02/M09 A3018 RMK AO2 SLP224 T00171089 51020
TAF
KMHT 
6nm E 
171132Z 1712/1812 VRB03KT P6SM FEW150 FM171400 30005KT P6SM SKC FM171800 31008G15KT P6SM FEW040 FM172300 VRB03KT P6SM FEW150
KCON 
14nm N 
171132Z 1712/1812 VRB03KT P6SM SCT150 FM171400 30005KT P6SM SKC FM171800 31008G15KT P6SM FEW040 FM172300 VRB04KT P6SM SKC
NOTAMs
Click for the latest NOTAMs
NOTAMs are issued by the DoD/FAA and will open in a separate window not controlled by AirNav.

 

 
 

Would you like to see your business listed on this page?

 If your business provides an interesting product or service to pilots, flight crews, aircraft, or users of the Dragonwings Heliport, you should consider listing it here.  To start the listing process, click on the button below
 
Add a business
 

Other Pages about Dragonwings Heliport

Update a link
 
Copyright © AirNav, LLC. All rights reserved. Privacy Policy  Contact